MSLC weather

La Cabaña Airport
La Cabaña, San Salvador, El Salvador

Public forecast

Using degrees Celsius for public forecast. Weather courtesy of forecast.io.

METAR (pilot weather report)

Closest report is Ilopango International Airport, 19.0 nm (35.2 km) SSE. Retrieved 2019/02/15 20:50 UTC (16 minutes ago):

MSSS 152050Z 20009KT 9999 SCT040 30/21 Q1012 A2991

TAF (pilot weather forecast)

Forecast is more than 12 hours old.

Closest forecast is Ilopango International Airport, 19.0 nm (35.2 km) SSE. Retrieved 2019/02/12 12:52 UTC (3 days ago):

TAF MSSS 120925Z 1212/1312 36009KT CAVOK TX31/1220Z TN19/1311Z FM121800 18007KT 9999 FEW043 FM130000 CAVOK FM130400 34005KT